Thursday, September 3, 2015, 3:09 PM EDT

KLKU, Louisa, Louisa County Airport/freeman Field

Location: Louisa, VA, United States Lat: 38.01
Local Time: 3:09 PM EDT (19:09 GMT) Lon: -77.97
Time Zone: US/Eastern Elev: 492 ft

Show me the last for .
Show Decoded

2015-09-03 14:35 METAR KLKU 031835Z AUTO 36007KT 320V030 10SM SCT060 34/18 A2990 RMK AO2 =
2015-09-03 14:15 METAR KLKU 031815Z AUTO 32007KT 290V350 10SM CLR 35/18 A2990 RMK AO2 =
2015-09-03 13:55 METAR KLKU 031755Z AUTO 05003KT 10SM SCT050 34/19 A2991 RMK AO2 =
2015-09-03 13:35 METAR KLKU 031735Z AUTO 35007KT 310V010 10SM BKN050 BKN070 33/19 A2992 RMK AO2 =
2015-09-03 13:15 METAR KLKU 031715Z AUTO 00000KT 10SM SCT050 32/19 A2992 RMK AO2 =
2015-09-03 12:55 METAR KLKU 031655Z AUTO 29005KT 10SM SCT050 33/19 A2993 RMK AO2 =
2015-09-03 12:35 METAR KLKU 031635Z AUTO 03004KT 10SM SCT050 33/19 A2993 RMK AO2 =
2015-09-03 12:15 METAR KLKU 031615Z AUTO 31003KT 10SM CLR 33/19 A2994 RMK AO2 =
2015-09-03 11:55 METAR KLKU 031555Z AUTO 31004KT 10SM CLR 32/20 A2995 RMK AO2 =
2015-09-03 11:35 METAR KLKU 031535Z AUTO 35003KT 10SM CLR 31/21 A2995 RMK AO2 =
2015-09-03 11:15 METAR KLKU 031515Z AUTO 33005KT 10SM CLR 31/21 A2995 RMK AO2 =
2015-09-03 10:55 METAR KLKU 031455Z AUTO 32007KT 10SM CLR 31/20 A2995 RMK AO2 =
2015-09-03 10:35 METAR KLKU 031435Z AUTO 36007KT 10SM CLR 30/19 A2995 RMK AO2 =
2015-09-03 10:15 METAR KLKU 031415Z AUTO 32004KT 10SM CLR 30/19 A2995 RMK AO2 =
2015-09-03 09:55 METAR KLKU 031355Z AUTO 33005KT 10SM CLR 29/19 A2995 RMK AO2 =
2015-09-03 09:35 METAR KLKU 031335Z AUTO 33003KT 10SM CLR 28/19 A2995 RMK AO2 =
2015-09-03 09:15 METAR KLKU 031315Z AUTO 00000KT 10SM CLR 27/20 A2995 RMK AO2 =
2015-09-03 08:55 METAR KLKU 031255Z AUTO 00000KT 10SM CLR 25/20 A2995 RMK AO2 =
2015-09-03 08:35 METAR KLKU 031235Z AUTO 00000KT 10SM CLR 23/19 A2995 RMK AO2 =
2015-09-03 08:15 METAR KLKU 031215Z AUTO 00000KT 10SM CLR 22/19 A2995 RMK AO2 =
2015-09-03 07:55 METAR KLKU 031155Z AUTO 00000KT 5SM BR CLR 21/19 A2995 RMK AO2 =
2015-09-03 07:35 METAR KLKU 031135Z AUTO 00000KT 4SM BR CLR 19/18 A2995 RMK AO2 =
2015-09-03 07:15 METAR KLKU 031115Z AUTO 00000KT 2SM BR CLR 19/18 A2994 RMK AO2 =
2015-09-03 06:55 METAR KLKU 031055Z AUTO 00000KT 5SM BR CLR 19/18 A2994 RMK AO2 =
2015-09-03 06:35 METAR KLKU 031035Z AUTO 00000KT 7SM CLR 19/18 A2994 RMK AO2 =
2015-09-03 06:15 METAR KLKU 031015Z AUTO 00000KT 7SM CLR 20/18 A2993 RMK AO2 =
2015-09-03 05:55 METAR KLKU 030955Z AUTO 24003KT 7SM CLR 19/18 A2993 RMK AO2 =
2015-09-03 05:35 METAR KLKU 030935Z AUTO 00000KT 5SM BR CLR 19/18 A2993 RMK AO2 =
2015-09-03 05:15 METAR KLKU 030915Z AUTO 00000KT 7SM CLR 19/18 A2992 RMK AO2 =
2015-09-03 04:55 METAR KLKU 030855Z AUTO 25003KT 7SM CLR 19/18 A2992 RMK AO2 =
2015-09-03 04:35 METAR KLKU 030835Z AUTO 00000KT 7SM CLR 19/18 A2992 RMK AO2 =
2015-09-03 04:15 METAR KLKU 030815Z AUTO 25003KT 4SM BR CLR 19/18 A2992 RMK AO2 =
2015-09-03 03:55 METAR KLKU 030755Z AUTO 00000KT 3SM BR CLR 19/18 A2992 RMK AO2 =
2015-09-03 03:35 METAR KLKU 030735Z AUTO 00000KT 5SM BR CLR 19/19 A2993 RMK AO2 =
2015-09-03 03:15 METAR KLKU 030715Z AUTO 24003KT 5SM BR CLR 20/19 A2993 RMK AO2 =
2015-09-03 02:55 METAR KLKU 030655Z AUTO 00000KT 5SM BR CLR 20/19 A2993 RMK AO2 =
2015-09-03 02:35 METAR KLKU 030635Z AUTO 00000KT 5SM BR CLR 20/19 A2994 RMK AO2 =
2015-09-03 02:15 METAR KLKU 030615Z AUTO 24003KT 5SM BR CLR 20/19 A2995 RMK AO2 =
2015-09-03 01:55 METAR KLKU 030555Z AUTO 25003KT 7SM CLR 21/19 A2995 RMK AO2 =
2015-09-03 01:35 METAR KLKU 030535Z AUTO 23003KT 7SM CLR 21/19 A2996 RMK AO2 =
2015-09-03 01:15 METAR KLKU 030515Z AUTO 22003KT 7SM CLR 21/19 A2997 RMK AO2 =
2015-09-03 00:55 METAR KLKU 030455Z AUTO 00000KT 7SM CLR 21/19 A2998 RMK AO2 =
2015-09-03 00:35 METAR KLKU 030435Z AUTO 00000KT 10SM CLR 21/19 A2999 RMK AO2 =
2015-09-03 00:15 METAR KLKU 030415Z AUTO 26003KT 10SM CLR 21/19 A2998 RMK AO2 =
2015-09-02 23:35 METAR KLKU 030335Z AUTO 00000KT 7SM CLR 20/19 A2998 RMK AO2 =
2015-09-02 23:15 METAR KLKU 030315Z AUTO 00000KT 7SM CLR 20/19 A2997 RMK AO2 =
2015-09-02 22:55 METAR KLKU 030255Z AUTO 00000KT 7SM CLR 20/19 A2997 RMK AO2 =
2015-09-02 22:35 METAR KLKU 030235Z AUTO 00000KT 10SM CLR 22/19 A2997 RMK AO2 =
2015-09-02 22:15 METAR KLKU 030215Z AUTO 00000KT 10SM CLR 21/19 A2997 RMK AO2 =
2015-09-02 21:55 METAR KLKU 030155Z AUTO 00000KT 10SM CLR 21/19 A2996 RMK AO2 =
2015-09-02 21:35 METAR KLKU 030135Z AUTO 00000KT 10SM CLR 22/19 A2996 RMK AO2 =
2015-09-02 21:15 METAR KLKU 030115Z AUTO 27003KT 10SM CLR 22/19 A2996 RMK AO2 =
2015-09-02 20:55 METAR KLKU 030055Z AUTO 00000KT 10SM CLR 23/19 A2997 RMK AO2 =
2015-09-02 20:35 METAR KLKU 030035Z AUTO 26004KT 10SM CLR 24/20 A2997 RMK AO2 =
2015-09-02 20:15 METAR KLKU 030015Z AUTO 23004KT 10SM CLR 24/20 A2998 RMK AO2 =
2015-09-02 19:55 METAR KLKU 022355Z AUTO 20005KT 10SM CLR 25/19 A2998 RMK AO2 =
2015-09-02 19:35 METAR KLKU 022335Z AUTO 24003KT 10SM SCT055 SCT070 26/19 A2997 RMK AO2 =
2015-09-02 19:15 METAR KLKU 022315Z AUTO 11005KT 10SM SCT055 26/20 A2998 RMK AO2 =
2015-09-02 18:35 METAR KLKU 022235Z AUTO 08006KT 10SM SCT060 SCT090 27/19 A2997 RMK AO2 =
2015-09-02 18:15 METAR KLKU 022215Z AUTO 35005G16KT 10SM SCT060 SCT070 BKN090 28/20 A2997 RMK AO2
                 =
2015-09-02 17:35 METAR KLKU 022135Z AUTO 34005KT 10SM SCT100 30/21 A2996 RMK AO2 =
2015-09-02 17:15 METAR KLKU 022115Z AUTO 34006KT 10SM SCT110 30/20 A2996 RMK AO2 =
2015-09-02 16:55 METAR KLKU 022055Z AUTO 35005KT 10SM SCT120 31/18 A2996 RMK AO2 =
2015-09-02 16:35 METAR KLKU 022035Z AUTO 31004KT 10SM CLR 32/19 A2997 RMK AO2 =
2015-09-02 16:15 METAR KLKU 022015Z AUTO 00000KT 10SM SCT055 33/19 A2997 RMK AO2 =
2015-09-02 15:55 METAR KLKU 021955Z AUTO 00000KT 10SM BKN055 33/19 A2997 RMK AO2 =
2015-09-02 15:35 METAR KLKU 021935Z AUTO 14003KT 10SM SCT049 33/19 A2996 RMK AO2 =
2015-09-02 15:15 METAR KLKU 021915Z AUTO 14003KT 10SM SCT049 33/20 A2997 RMK AO2 =

Support USWX by starting your Amazon purchase here.